sensor_id;sensor_type;location;lat;lon;timestamp;P1;durP1;ratioP1;P2;durP2;ratioP2
18893;SDS011;9579;49.488;8.226;2023-04-03T00:02:39;2.90;;;2.60;;
18893;SDS011;9579;49.488;8.226;2023-04-03T00:05:26;2.90;;;2.70;;
18893;SDS011;9579;49.488;8.226;2023-04-03T00:08:16;3.50;;;3.00;;
18893;SDS011;9579;49.488;8.226;2023-04-03T00:11:03;3.23;;;3.00;;
18893;SDS011;9579;49.488;8.226;2023-04-03T00:13:55;3.27;;;2.90;;
18893;SDS011;9579;49.488;8.226;2023-04-03T00:16:43;3.23;;;2.80;;
18893;SDS011;9579;49.488;8.226;2023-04-03T00:19:30;3.20;;;2.90;;
18893;SDS011;9579;49.488;8.226;2023-04-03T00:22:18;3.83;;;2.93;;
18893;SDS011;9579;49.488;8.226;2023-04-03T00:25:07;3.30;;;3.00;;
18893;SDS011;9579;49.488;8.226;2023-04-03T00:27:56;3.17;;;2.87;;
18893;SDS011;9579;49.488;8.226;2023-04-03T00:30:44;3.30;;;3.00;;
18893;SDS011;9579;49.488;8.226;2023-04-03T00:33:32;3.73;;;3.30;;
18893;SDS011;9579;49.488;8.226;2023-04-03T00:36:20;3.40;;;3.10;;
18893;SDS011;9579;49.488;8.226;2023-04-03T00:39:11;3.60;;;3.30;;
18893;SDS011;9579;49.488;8.226;2023-04-03T00:42:01;3.43;;;3.13;;
18893;SDS011;9579;49.488;8.226;2023-04-03T00:48:13;3.57;;;3.27;;
18893;SDS011;9579;49.488;8.226;2023-04-03T00:51:03;3.50;;;3.20;;
18893;SDS011;9579;49.488;8.226;2023-04-03T00:53:53;3.43;;;3.10;;
18893;SDS011;9579;49.488;8.226;2023-04-03T00:56:45;3.50;;;3.20;;
18893;SDS011;9579;49.488;8.226;2023-04-03T00:59:36;3.50;;;3.20;;
18893;SDS011;9579;49.488;8.226;2023-04-03T01:02:29;3.67;;;3.37;;
18893;SDS011;9579;49.488;8.226;2023-04-03T01:05:17;3.13;;;2.93;;
18893;SDS011;9579;49.488;8.226;2023-04-03T01:08:05;3.67;;;3.47;;
18893;SDS011;9579;49.488;8.226;2023-04-03T01:10:54;4.27;;;3.50;;
18893;SDS011;9579;49.488;8.226;2023-04-03T01:14:18;5.47;;;3.37;;
18893;SDS011;9579;49.488;8.226;2023-04-03T01:17:38;3.53;;;3.20;;
18893;SDS011;9579;49.488;8.226;2023-04-03T01:20:41;3.50;;;3.20;;
18893;SDS011;9579;49.488;8.226;2023-04-03T01:23:58;3.83;;;3.50;;
18893;SDS011;9579;49.488;8.226;2023-04-03T01:26:51;3.93;;;3.63;;
18893;SDS011;9579;49.488;8.226;2023-04-03T01:29:39;4.03;;;3.63;;
18893;SDS011;9579;49.488;8.226;2023-04-03T01:32:30;4.10;;;3.80;;
18893;SDS011;9579;49.488;8.226;2023-04-03T01:35:17;4.20;;;3.80;;
18893;SDS011;9579;49.488;8.226;2023-04-03T01:38:04;4.10;;;3.80;;
18893;SDS011;9579;49.488;8.226;2023-04-03T01:40:51;3.60;;;3.30;;
18893;SDS011;9579;49.488;8.226;2023-04-03T01:43:38;4.33;;;3.93;;
18893;SDS011;9579;49.488;8.226;2023-04-03T01:46:25;4.30;;;3.90;;
18893;SDS011;9579;49.488;8.226;2023-04-03T01:49:13;4.77;;;4.27;;
18893;SDS011;9579;49.488;8.226;2023-04-03T01:52:00;4.33;;;3.70;;
18893;SDS011;9579;49.488;8.226;2023-04-03T01:54:47;4.10;;;3.80;;
18893;SDS011;9579;49.488;8.226;2023-04-03T01:57:35;4.40;;;3.80;;
18893;SDS011;9579;49.488;8.226;2023-04-03T02:00:22;4.77;;;4.23;;
18893;SDS011;9579;49.488;8.226;2023-04-03T02:03:09;4.10;;;3.70;;
18893;SDS011;9579;49.488;8.226;2023-04-03T02:05:58;4.50;;;4.10;;
18893;SDS011;9579;49.488;8.226;2023-04-03T02:08:46;3.80;;;3.40;;
18893;SDS011;9579;49.488;8.226;2023-04-03T02:11:33;4.00;;;3.70;;
18893;SDS011;9579;49.488;8.226;2023-04-03T02:14:20;4.20;;;3.80;;
18893;SDS011;9579;49.488;8.226;2023-04-03T02:17:08;4.20;;;3.80;;
18893;SDS011;9579;49.488;8.226;2023-04-03T02:19:55;4.10;;;3.80;;
18893;SDS011;9579;49.488;8.226;2023-04-03T02:22:44;4.37;;;3.90;;
18893;SDS011;9579;49.488;8.226;2023-04-03T02:25:31;4.43;;;3.70;;
18893;SDS011;9579;49.488;8.226;2023-04-03T02:28:18;4.97;;;4.10;;
18893;SDS011;9579;49.488;8.226;2023-04-03T02:31:05;3.73;;;3.43;;
18893;SDS011;9579;49.488;8.226;2023-04-03T02:33:53;4.20;;;3.80;;
18893;SDS011;9579;49.488;8.226;2023-04-03T02:36:40;4.70;;;4.37;;
18893;SDS011;9579;49.488;8.226;2023-04-03T02:39:29;4.80;;;4.40;;
18893;SDS011;9579;49.488;8.226;2023-04-03T02:42:16;7.63;;;6.30;;
18893;SDS011;9579;49.488;8.226;2023-04-03T02:45:03;5.30;;;4.80;;
18893;SDS011;9579;49.488;8.226;2023-04-03T02:47:51;4.83;;;4.30;;
18893;SDS011;9579;49.488;8.226;2023-04-03T02:50:38;3.80;;;3.50;;
18893;SDS011;9579;49.488;8.226;2023-04-03T02:53:27;4.37;;;3.97;;
18893;SDS011;9579;49.488;8.226;2023-04-03T02:56:15;4.03;;;3.73;;
18893;SDS011;9579;49.488;8.226;2023-04-03T02:59:03;3.97;;;3.50;;
18893;SDS011;9579;49.488;8.226;2023-04-03T03:01:50;4.20;;;3.77;;
18893;SDS011;9579;49.488;8.226;2023-04-03T03:04:37;4.07;;;3.67;;
18893;SDS011;9579;49.488;8.226;2023-04-03T03:07:24;4.23;;;3.77;;
18893;SDS011;9579;49.488;8.226;2023-04-03T03:10:11;3.70;;;3.40;;
18893;SDS011;9579;49.488;8.226;2023-04-03T03:12:59;4.53;;;3.87;;
18893;SDS011;9579;49.488;8.226;2023-04-03T03:15:47;3.60;;;3.30;;
18893;SDS011;9579;49.488;8.226;2023-04-03T03:18:34;3.70;;;3.30;;
18893;SDS011;9579;49.488;8.226;2023-04-03T03:21:22;3.87;;;3.47;;
18893;SDS011;9579;49.488;8.226;2023-04-03T03:24:09;4.03;;;3.27;;
18893;SDS011;9579;49.488;8.226;2023-04-03T03:26:57;3.77;;;3.47;;
18893;SDS011;9579;49.488;8.226;2023-04-03T03:29:45;3.97;;;3.60;;
18893;SDS011;9579;49.488;8.226;2023-04-03T03:32:32;3.67;;;3.37;;
18893;SDS011;9579;49.488;8.226;2023-04-03T03:35:19;4.67;;;3.33;;
18893;SDS011;9579;49.488;8.226;2023-04-03T03:38:06;4.13;;;3.53;;
18893;SDS011;9579;49.488;8.226;2023-04-03T03:40:53;3.73;;;3.30;;
18893;SDS011;9579;49.488;8.226;2023-04-03T03:43:40;4.60;;;3.37;;
18893;SDS011;9579;49.488;8.226;2023-04-03T03:46:29;3.23;;;2.87;;
18893;SDS011;9579;49.488;8.226;2023-04-03T03:49:16;3.93;;;3.20;;
18893;SDS011;9579;49.488;8.226;2023-04-03T03:52:03;3.83;;;3.20;;
18893;SDS011;9579;49.488;8.226;2023-04-03T03:54:50;4.57;;;2.93;;
18893;SDS011;9579;49.488;8.226;2023-04-03T03:57:37;4.10;;;3.77;;
18893;SDS011;9579;49.488;8.226;2023-04-03T04:00:24;3.80;;;3.40;;
18893;SDS011;9579;49.488;8.226;2023-04-03T04:03:12;3.80;;;3.27;;
18893;SDS011;9579;49.488;8.226;2023-04-03T04:05:59;4.00;;;3.60;;
18893;SDS011;9579;49.488;8.226;2023-04-03T04:08:46;3.50;;;3.20;;
18893;SDS011;9579;49.488;8.226;2023-04-03T04:11:33;4.10;;;3.50;;
18893;SDS011;9579;49.488;8.226;2023-04-03T04:14:20;5.03;;;3.87;;
18893;SDS011;9579;49.488;8.226;2023-04-03T04:17:07;3.60;;;3.30;;
18893;SDS011;9579;49.488;8.226;2023-04-03T04:19:56;3.57;;;3.17;;
18893;SDS011;9579;49.488;8.226;2023-04-03T04:22:43;5.03;;;3.40;;
18893;SDS011;9579;49.488;8.226;2023-04-03T04:25:30;3.90;;;3.47;;
18893;SDS011;9579;49.488;8.226;2023-04-03T04:28:18;4.37;;;3.47;;
18893;SDS011;9579;49.488;8.226;2023-04-03T04:31:05;3.50;;;3.20;;
18893;SDS011;9579;49.488;8.226;2023-04-03T04:33:52;3.33;;;3.03;;
18893;SDS011;9579;49.488;8.226;2023-04-03T04:36:41;3.80;;;3.30;;
18893;SDS011;9579;49.488;8.226;2023-04-03T04:39:28;3.67;;;3.37;;
18893;SDS011;9579;49.488;8.226;2023-04-03T04:42:15;3.67;;;3.37;;
18893;SDS011;9579;49.488;8.226;2023-04-03T04:45:02;4.33;;;3.40;;
18893;SDS011;9579;49.488;8.226;2023-04-03T04:47:50;4.27;;;3.70;;
18893;SDS011;9579;49.488;8.226;2023-04-03T04:50:38;3.80;;;3.50;;
18893;SDS011;9579;49.488;8.226;2023-04-03T04:53:26;4.10;;;3.70;;
18893;SDS011;9579;49.488;8.226;2023-04-03T04:56:13;4.27;;;3.83;;
18893;SDS011;9579;49.488;8.226;2023-04-03T04:59:00;5.17;;;3.83;;
18893;SDS011;9579;49.488;8.226;2023-04-03T05:01:47;4.00;;;3.60;;
18893;SDS011;9579;49.488;8.226;2023-04-03T05:04:34;4.53;;;3.60;;
18893;SDS011;9579;49.488;8.226;2023-04-03T05:07:21;4.40;;;4.00;;
18893;SDS011;9579;49.488;8.226;2023-04-03T05:10:10;4.47;;;3.80;;
18893;SDS011;9579;49.488;8.226;2023-04-03T05:12:57;4.63;;;3.57;;
18893;SDS011;9579;49.488;8.226;2023-04-03T05:15:44;4.57;;;3.53;;
18893;SDS011;9579;49.488;8.226;2023-04-03T05:18:32;4.30;;;3.90;;
18893;SDS011;9579;49.488;8.226;2023-04-03T05:21:19;4.60;;;3.70;;
18893;SDS011;9579;49.488;8.226;2023-04-03T05:24:08;3.90;;;3.60;;
18893;SDS011;9579;49.488;8.226;2023-04-03T05:26:56;5.97;;;3.80;;
18893;SDS011;9579;49.488;8.226;2023-04-03T05:29:43;4.20;;;3.70;;
18893;SDS011;9579;49.488;8.226;2023-04-03T05:32:30;5.33;;;3.63;;
18893;SDS011;9579;49.488;8.226;2023-04-03T05:35:18;4.53;;;3.90;;
18893;SDS011;9579;49.488;8.226;2023-04-03T05:38:05;4.53;;;4.07;;
18893;SDS011;9579;49.488;8.226;2023-04-03T05:40:52;4.77;;;4.10;;
18893;SDS011;9579;49.488;8.226;2023-04-03T05:43:40;4.97;;;4.07;;
18893;SDS011;9579;49.488;8.226;2023-04-03T05:46:27;4.23;;;3.83;;
18893;SDS011;9579;49.488;8.226;2023-04-03T05:49:15;5.03;;;4.30;;
18893;SDS011;9579;49.488;8.226;2023-04-03T05:52:02;4.30;;;3.90;;
18893;SDS011;9579;49.488;8.226;2023-04-03T05:54:49;4.23;;;3.83;;
18893;SDS011;9579;49.488;8.226;2023-04-03T05:57:36;4.43;;;3.83;;
18893;SDS011;9579;49.488;8.226;2023-04-03T06:00:25;5.50;;;3.73;;
18893;SDS011;9579;49.488;8.226;2023-04-03T06:03:12;4.70;;;3.73;;
18893;SDS011;9579;49.488;8.226;2023-04-03T06:06:02;4.73;;;3.67;;
18893;SDS011;9579;49.488;8.226;2023-04-03T06:08:50;4.60;;;3.70;;
18893;SDS011;9579;49.488;8.226;2023-04-03T06:11:37;5.43;;;3.73;;
18893;SDS011;9579;49.488;8.226;2023-04-03T06:14:24;5.10;;;3.80;;
18893;SDS011;9579;49.488;8.226;2023-04-03T06:17:13;4.00;;;3.60;;
18893;SDS011;9579;49.488;8.226;2023-04-03T06:20:01;4.37;;;3.60;;
18893;SDS011;9579;49.488;8.226;2023-04-03T06:22:48;3.93;;;3.53;;
18893;SDS011;9579;49.488;8.226;2023-04-03T06:25:36;4.67;;;3.53;;
18893;SDS011;9579;49.488;8.226;2023-04-03T06:28:23;4.57;;;3.43;;
18893;SDS011;9579;49.488;8.226;2023-04-03T06:31:10;3.80;;;3.40;;
18893;SDS011;9579;49.488;8.226;2023-04-03T06:33:58;4.43;;;3.97;;
18893;SDS011;9579;49.488;8.226;2023-04-03T06:36:45;4.03;;;3.57;;
18893;SDS011;9579;49.488;8.226;2023-04-03T06:39:34;3.80;;;3.50;;
18893;SDS011;9579;49.488;8.226;2023-04-03T06:42:21;3.93;;;3.53;;
18893;SDS011;9579;49.488;8.226;2023-04-03T06:45:08;4.03;;;3.60;;
18893;SDS011;9579;49.488;8.226;2023-04-03T06:47:57;4.23;;;3.57;;
18893;SDS011;9579;49.488;8.226;2023-04-03T06:50:45;4.37;;;3.40;;
18893;SDS011;9579;49.488;8.226;2023-04-03T06:53:32;3.93;;;3.07;;
18893;SDS011;9579;49.488;8.226;2023-04-03T06:56:19;3.87;;;3.23;;
18893;SDS011;9579;49.488;8.226;2023-04-03T06:59:07;4.10;;;3.10;;
18893;SDS011;9579;49.488;8.226;2023-04-03T07:01:55;3.80;;;2.90;;
18893;SDS011;9579;49.488;8.226;2023-04-03T07:04:43;5.70;;;2.83;;
18893;SDS011;9579;49.488;8.226;2023-04-03T07:07:32;3.87;;;2.73;;
18893;SDS011;9579;49.488;8.226;2023-04-03T07:10:19;5.07;;;2.80;;
18893;SDS011;9579;49.488;8.226;2023-04-03T07:13:07;4.07;;;2.87;;
18893;SDS011;9579;49.488;8.226;2023-04-03T07:15:54;5.23;;;3.03;;
18893;SDS011;9579;49.488;8.226;2023-04-03T07:18:41;4.23;;;2.93;;
18893;SDS011;9579;49.488;8.226;2023-04-03T07:21:28;4.17;;;2.77;;
18893;SDS011;9579;49.488;8.226;2023-04-03T07:24:17;4.57;;;2.90;;
18893;SDS011;9579;49.488;8.226;2023-04-03T07:27:04;5.03;;;2.90;;
18893;SDS011;9579;49.488;8.226;2023-04-03T07:29:53;2.93;;;2.60;;
18893;SDS011;9579;49.488;8.226;2023-04-03T07:32:41;3.07;;;2.60;;
18893;SDS011;9579;49.488;8.226;2023-04-03T07:35:32;4.50;;;2.90;;
18893;SDS011;9579;49.488;8.226;2023-04-03T07:38:20;3.90;;;2.80;;
18893;SDS011;9579;49.488;8.226;2023-04-03T07:41:11;4.53;;;2.70;;
18893;SDS011;9579;49.488;8.226;2023-04-03T07:44:00;3.37;;;2.57;;
18893;SDS011;9579;49.488;8.226;2023-04-03T08:48:57;3.30;;;2.67;;
18893;SDS011;9579;49.488;8.226;2023-04-03T08:52:02;5.45;;;2.88;;
18893;SDS011;9579;49.488;8.226;2023-04-03T08:55:33;3.85;;;2.72;;
18893;SDS011;9579;49.488;8.226;2023-04-03T08:58:30;2.80;;;2.25;;
18893;SDS011;9579;49.488;8.226;2023-04-03T09:01:23;4.22;;;2.80;;
18893;SDS011;9579;49.488;8.226;2023-04-03T09:04:14;3.50;;;2.40;;
18893;SDS011;9579;49.488;8.226;2023-04-03T09:07:21;3.85;;;2.22;;
18893;SDS011;9579;49.488;8.226;2023-04-03T09:10:27;3.22;;;2.30;;
18893;SDS011;9579;49.488;8.226;2023-04-03T09:13:21;2.80;;;2.28;;
18893;SDS011;9579;49.488;8.226;2023-04-03T09:16:18;3.65;;;2.28;;
18893;SDS011;9579;49.488;8.226;2023-04-03T09:19:10;3.25;;;2.20;;
18893;SDS011;9579;49.488;8.226;2023-04-03T09:22:11;3.40;;;2.28;;
18893;SDS011;9579;49.488;8.226;2023-04-03T09:25:05;4.15;;;2.45;;
18893;SDS011;9579;49.488;8.226;2023-04-03T09:27:58;3.22;;;2.00;;
18893;SDS011;9579;49.488;8.226;2023-04-03T09:30:46;2.38;;;1.95;;
18893;SDS011;9579;49.488;8.226;2023-04-03T09:33:33;2.83;;;2.20;;
18893;SDS011;9579;49.488;8.226;2023-04-03T09:36:38;3.53;;;2.13;;
18893;SDS011;9579;49.488;8.226;2023-04-03T09:39:28;2.38;;;1.90;;
18893;SDS011;9579;49.488;8.226;2023-04-03T09:42:16;2.35;;;1.90;;
18893;SDS011;9579;49.488;8.226;2023-04-03T09:45:18;3.13;;;1.90;;
18893;SDS011;9579;49.488;8.226;2023-04-03T09:48:14;2.25;;;1.80;;
18893;SDS011;9579;49.488;8.226;2023-04-03T09:51:03;1.88;;;1.73;;
18893;SDS011;9579;49.488;8.226;2023-04-03T09:53:52;2.22;;;1.80;;
18893;SDS011;9579;49.488;8.226;2023-04-03T09:56:39;2.25;;;1.88;;
18893;SDS011;9579;49.488;8.226;2023-04-03T09:59:27;3.38;;;1.83;;
18893;SDS011;9579;49.488;8.226;2023-04-03T10:02:22;3.78;;;1.95;;
18893;SDS011;9579;49.488;8.226;2023-04-03T10:05:29;3.95;;;2.00;;
18893;SDS011;9579;49.488;8.226;2023-04-03T10:08:20;2.67;;;1.80;;
18893;SDS011;9579;49.488;8.226;2023-04-03T10:11:13;3.45;;;2.00;;
18893;SDS011;9579;49.488;8.226;2023-04-03T10:14:02;2.53;;;1.83;;
18893;SDS011;9579;49.488;8.226;2023-04-03T10:16:52;2.78;;;1.80;;
18893;SDS011;9579;49.488;8.226;2023-04-03T10:19:45;4.20;;;1.90;;
18893;SDS011;9579;49.488;8.226;2023-04-03T10:22:40;3.00;;;2.00;;
18893;SDS011;9579;49.488;8.226;2023-04-03T10:25:37;2.00;;;1.70;;
18893;SDS011;9579;49.488;8.226;2023-04-03T10:28:33;3.00;;;2.10;;
18893;SDS011;9579;49.488;8.226;2023-04-03T10:31:28;2.67;;;1.90;;
18893;SDS011;9579;49.488;8.226;2023-04-03T10:34:24;2.50;;;1.83;;
18893;SDS011;9579;49.488;8.226;2023-04-03T10:37:17;2.97;;;1.90;;
18893;SDS011;9579;49.488;8.226;2023-04-03T10:40:14;2.47;;;1.75;;
18893;SDS011;9579;49.488;8.226;2023-04-03T10:43:09;2.92;;;1.80;;
18893;SDS011;9579;49.488;8.226;2023-04-03T10:46:04;2.25;;;1.88;;
18893;SDS011;9579;49.488;8.226;2023-04-03T10:49:03;2.10;;;1.73;;
18893;SDS011;9579;49.488;8.226;2023-04-03T10:52:02;3.63;;;1.83;;
18893;SDS011;9579;49.488;8.226;2023-04-03T10:54:59;2.33;;;1.60;;
18893;SDS011;9579;49.488;8.226;2023-04-03T10:57:53;3.45;;;2.10;;
18893;SDS011;9579;49.488;8.226;2023-04-03T11:00:43;2.15;;;1.90;;
18893;SDS011;9579;49.488;8.226;2023-04-03T11:03:35;2.25;;;1.70;;
18893;SDS011;9579;49.488;8.226;2023-04-03T11:06:39;2.83;;;1.67;;
18893;SDS011;9579;49.488;8.226;2023-04-03T11:44:03;2.57;;;1.80;;
18893;SDS011;9579;49.488;8.226;2023-04-03T11:51:20;2.00;;;1.60;;
18893;SDS011;9579;49.488;8.226;2023-04-03T11:54:47;1.70;;;1.60;;
18893;SDS011;9579;49.488;8.226;2023-04-03T12:20:56;2.78;;;1.90;;
18893;SDS011;9579;49.488;8.226;2023-04-03T12:24:00;3.95;;;2.00;;
18893;SDS011;9579;49.488;8.226;2023-04-03T12:26:50;2.45;;;1.80;;
18893;SDS011;9579;49.488;8.226;2023-04-03T12:29:50;2.15;;;1.80;;
18893;SDS011;9579;49.488;8.226;2023-04-03T12:32:56;3.30;;;2.15;;
18893;SDS011;9579;49.488;8.226;2023-04-03T13:02:34;2.30;;;1.77;;
18893;SDS011;9579;49.488;8.226;2023-04-03T13:10:47;2.60;;;1.87;;
18893;SDS011;9579;49.488;8.226;2023-04-03T13:14:14;2.10;;;1.90;;
18893;SDS011;9579;49.488;8.226;2023-04-03T13:17:11;3.33;;;1.90;;
18893;SDS011;9579;49.488;8.226;2023-04-03T13:20:13;3.57;;;2.00;;
18893;SDS011;9579;49.488;8.226;2023-04-03T13:23:05;2.07;;;1.87;;
18893;SDS011;9579;49.488;8.226;2023-04-03T13:25:55;3.43;;;1.90;;
18893;SDS011;9579;49.488;8.226;2023-04-03T13:28:48;3.00;;;2.00;;
18893;SDS011;9579;49.488;8.226;2023-04-03T13:31:44;2.27;;;1.90;;
18893;SDS011;9579;49.488;8.226;2023-04-03T13:38:59;2.47;;;1.70;;
18893;SDS011;9579;49.488;8.226;2023-04-03T13:41:51;3.75;;;2.00;;
18893;SDS011;9579;49.488;8.226;2023-04-03T13:44:40;2.38;;;1.80;;
18893;SDS011;9579;49.488;8.226;2023-04-03T13:47:37;2.50;;;1.75;;
18893;SDS011;9579;49.488;8.226;2023-04-03T13:50:27;2.60;;;1.88;;
18893;SDS011;9579;49.488;8.226;2023-04-03T13:53:15;2.15;;;1.77;;
18893;SDS011;9579;49.488;8.226;2023-04-03T13:56:07;2.83;;;1.90;;
18893;SDS011;9579;49.488;8.226;2023-04-03T13:59:18;2.30;;;1.67;;
18893;SDS011;9579;49.488;8.226;2023-04-03T14:02:16;2.60;;;1.90;;
18893;SDS011;9579;49.488;8.226;2023-04-03T14:05:07;2.65;;;2.35;;
18893;SDS011;9579;49.488;8.226;2023-04-03T14:07:55;2.45;;;1.90;;
18893;SDS011;9579;49.488;8.226;2023-04-03T14:10:42;1.75;;;1.65;;
18893;SDS011;9579;49.488;8.226;2023-04-03T14:13:31;3.22;;;1.88;;
18893;SDS011;9579;49.488;8.226;2023-04-03T14:16:19;3.67;;;2.78;;
18893;SDS011;9579;49.488;8.226;2023-04-03T14:19:11;2.33;;;1.77;;
18893;SDS011;9579;49.488;8.226;2023-04-03T14:22:07;2.47;;;2.00;;
18893;SDS011;9579;49.488;8.226;2023-04-03T14:25:00;2.35;;;2.15;;
18893;SDS011;9579;49.488;8.226;2023-04-03T14:27:49;2.28;;;1.67;;
18893;SDS011;9579;49.488;8.226;2023-04-03T14:30:39;1.75;;;1.63;;
18893;SDS011;9579;49.488;8.226;2023-04-03T14:33:26;2.72;;;1.90;;
18893;SDS011;9579;49.488;8.226;2023-04-03T14:36:17;2.90;;;1.60;;
18893;SDS011;9579;49.488;8.226;2023-04-03T14:39:06;2.72;;;1.90;;
18893;SDS011;9579;49.488;8.226;2023-04-03T14:41:54;2.20;;;1.88;;
18893;SDS011;9579;49.488;8.226;2023-04-03T14:44:43;1.80;;;1.70;;
18893;SDS011;9579;49.488;8.226;2023-04-03T14:47:32;2.35;;;2.00;;
18893;SDS011;9579;49.488;8.226;2023-04-03T14:50:22;5.28;;;2.10;;
18893;SDS011;9579;49.488;8.226;2023-04-03T14:53:11;2.70;;;1.85;;
18893;SDS011;9579;49.488;8.226;2023-04-03T14:56:00;2.63;;;1.80;;
18893;SDS011;9579;49.488;8.226;2023-04-03T14:58:47;2.13;;;1.75;;
18893;SDS011;9579;49.488;8.226;2023-04-03T15:01:35;2.42;;;2.08;;
18893;SDS011;9579;49.488;8.226;2023-04-03T15:04:24;2.15;;;1.95;;
18893;SDS011;9579;49.488;8.226;2023-04-03T15:07:11;2.30;;;2.00;;
18893;SDS011;9579;49.488;8.226;2023-04-03T15:09:58;2.22;;;2.03;;
18893;SDS011;9579;49.488;8.226;2023-04-03T15:12:48;2.42;;;1.98;;
18893;SDS011;9579;49.488;8.226;2023-04-03T15:15:36;1.85;;;1.75;;
18893;SDS011;9579;49.488;8.226;2023-04-03T15:18:24;2.55;;;2.00;;
18893;SDS011;9579;49.488;8.226;2023-04-03T15:21:14;3.17;;;2.05;;
18893;SDS011;9579;49.488;8.226;2023-04-03T15:24:02;2.25;;;1.90;;
18893;SDS011;9579;49.488;8.226;2023-04-03T15:26:49;2.88;;;1.90;;
18893;SDS011;9579;49.488;8.226;2023-04-03T15:29:36;2.00;;;1.80;;
18893;SDS011;9579;49.488;8.226;2023-04-03T15:32:24;1.90;;;1.70;;
18893;SDS011;9579;49.488;8.226;2023-04-03T15:35:11;2.38;;;1.98;;
18893;SDS011;9579;49.488;8.226;2023-04-03T15:37:59;2.35;;;2.00;;
18893;SDS011;9579;49.488;8.226;2023-04-03T15:40:48;2.33;;;1.85;;
18893;SDS011;9579;49.488;8.226;2023-04-03T15:43:35;2.10;;;1.90;;
18893;SDS011;9579;49.488;8.226;2023-04-03T15:46:22;2.57;;;1.90;;
18893;SDS011;9579;49.488;8.226;2023-04-03T15:49:09;2.50;;;1.90;;
18893;SDS011;9579;49.488;8.226;2023-04-03T15:51:56;2.13;;;1.93;;
18893;SDS011;9579;49.488;8.226;2023-04-03T15:54:45;2.00;;;1.90;;
18893;SDS011;9579;49.488;8.226;2023-04-03T15:57:32;3.37;;;2.03;;
18893;SDS011;9579;49.488;8.226;2023-04-03T16:00:19;2.97;;;2.00;;
18893;SDS011;9579;49.488;8.226;2023-04-03T16:03:08;3.10;;;2.10;;
18893;SDS011;9579;49.488;8.226;2023-04-03T16:05:57;2.80;;;2.00;;
18893;SDS011;9579;49.488;8.226;2023-04-03T16:08:44;2.37;;;1.90;;
18893;SDS011;9579;49.488;8.226;2023-04-03T16:11:35;2.63;;;1.90;;
18893;SDS011;9579;49.488;8.226;2023-04-03T16:14:25;2.17;;;1.80;;
18893;SDS011;9579;49.488;8.226;2023-04-03T16:17:13;2.87;;;1.90;;
18893;SDS011;9579;49.488;8.226;2023-04-03T16:20:00;2.53;;;1.97;;
18893;SDS011;9579;49.488;8.226;2023-04-03T16:22:48;2.40;;;2.10;;
18893;SDS011;9579;49.488;8.226;2023-04-03T16:25:39;2.47;;;1.87;;
18893;SDS011;9579;49.488;8.226;2023-04-03T16:28:32;2.83;;;2.00;;
18893;SDS011;9579;49.488;8.226;2023-04-03T16:31:19;4.37;;;2.00;;
18893;SDS011;9579;49.488;8.226;2023-04-03T16:34:07;2.47;;;1.93;;
18893;SDS011;9579;49.488;8.226;2023-04-03T16:36:54;3.00;;;1.93;;
18893;SDS011;9579;49.488;8.226;2023-04-03T16:39:41;2.60;;;2.00;;
18893;SDS011;9579;49.488;8.226;2023-04-03T16:42:28;2.07;;;1.80;;
18893;SDS011;9579;49.488;8.226;2023-04-03T16:45:16;2.10;;;1.90;;
18893;SDS011;9579;49.488;8.226;2023-04-03T16:48:06;2.00;;;1.80;;
18893;SDS011;9579;49.488;8.226;2023-04-03T16:50:53;2.00;;;1.80;;
18893;SDS011;9579;49.488;8.226;2023-04-03T16:53:40;2.00;;;1.80;;
18893;SDS011;9579;49.488;8.226;2023-04-03T16:56:27;1.93;;;1.70;;
18893;SDS011;9579;49.488;8.226;2023-04-03T16:59:14;2.03;;;1.83;;
18893;SDS011;9579;49.488;8.226;2023-04-03T17:02:02;3.67;;;2.00;;
18893;SDS011;9579;49.488;8.226;2023-04-03T17:04:49;2.43;;;1.70;;
18893;SDS011;9579;49.488;8.226;2023-04-03T17:07:36;2.60;;;1.90;;
18893;SDS011;9579;49.488;8.226;2023-04-03T17:10:24;2.57;;;1.90;;
18893;SDS011;9579;49.488;8.226;2023-04-03T17:13:11;2.47;;;1.80;;
18893;SDS011;9579;49.488;8.226;2023-04-03T17:15:58;1.77;;;1.57;;
18893;SDS011;9579;49.488;8.226;2023-04-03T17:18:47;2.73;;;1.97;;
18893;SDS011;9579;49.488;8.226;2023-04-03T17:21:34;2.13;;;1.83;;
18893;SDS011;9579;49.488;8.226;2023-04-03T17:24:22;3.47;;;1.73;;
18893;SDS011;9579;49.488;8.226;2023-04-03T17:27:09;2.33;;;1.80;;
18893;SDS011;9579;49.488;8.226;2023-04-03T17:29:56;2.30;;;1.93;;
18893;SDS011;9579;49.488;8.226;2023-04-03T17:32:44;1.97;;;1.60;;
18893;SDS011;9579;49.488;8.226;2023-04-03T17:35:32;2.17;;;1.70;;
18893;SDS011;9579;49.488;8.226;2023-04-03T17:38:21;1.70;;;1.60;;
18893;SDS011;9579;49.488;8.226;2023-04-03T17:41:09;1.93;;;1.53;;
18893;SDS011;9579;49.488;8.226;2023-04-03T17:43:56;1.70;;;1.60;;
18893;SDS011;9579;49.488;8.226;2023-04-03T17:46:43;2.00;;;1.80;;
18893;SDS011;9579;49.488;8.226;2023-04-03T17:49:30;9.03;;;8.13;;
18893;SDS011;9579;49.488;8.226;2023-04-03T17:52:19;4.40;;;4.00;;
18893;SDS011;9579;49.488;8.226;2023-04-03T17:55:08;3.83;;;3.43;;
18893;SDS011;9579;49.488;8.226;2023-04-03T17:57:55;2.40;;;2.20;;
18893;SDS011;9579;49.488;8.226;2023-04-03T18:00:42;3.13;;;2.40;;
18893;SDS011;9579;49.488;8.226;2023-04-03T18:03:29;5.73;;;5.00;;
18893;SDS011;9579;49.488;8.226;2023-04-03T18:06:18;4.87;;;2.57;;
18893;SDS011;9579;49.488;8.226;2023-04-03T18:09:15;2.83;;;2.57;;
18893;SDS011;9579;49.488;8.226;2023-04-03T18:12:04;3.03;;;2.73;;
18893;SDS011;9579;49.488;8.226;2023-04-03T18:14:54;5.60;;;4.67;;
18893;SDS011;9579;49.488;8.226;2023-04-03T18:17:41;16.17;;;12.57;;
18893;SDS011;9579;49.488;8.226;2023-04-03T18:20:28;37.97;;;30.37;;
18893;SDS011;9579;49.488;8.226;2023-04-03T18:23:15;17.80;;;15.37;;
18893;SDS011;9579;49.488;8.226;2023-04-03T18:26:03;12.40;;;10.27;;
18893;SDS011;9579;49.488;8.226;2023-04-03T18:28:53;22.43;;;16.50;;
18893;SDS011;9579;49.488;8.226;2023-04-03T18:31:45;9.20;;;7.80;;
18893;SDS011;9579;49.488;8.226;2023-04-03T18:34:34;11.60;;;9.73;;
18893;SDS011;9579;49.488;8.226;2023-04-03T18:37:22;8.40;;;5.77;;
18893;SDS011;9579;49.488;8.226;2023-04-03T18:40:10;8.43;;;7.53;;
18893;SDS011;9579;49.488;8.226;2023-04-03T18:42:59;5.83;;;5.23;;
18893;SDS011;9579;49.488;8.226;2023-04-03T18:45:49;8.83;;;7.13;;
18893;SDS011;9579;49.488;8.226;2023-04-03T18:48:37;4.60;;;4.17;;
18893;SDS011;9579;49.488;8.226;2023-04-03T18:51:26;5.40;;;4.87;;
18893;SDS011;9579;49.488;8.226;2023-04-03T18:54:13;3.40;;;3.10;;
18893;SDS011;9579;49.488;8.226;2023-04-03T18:57:00;3.40;;;3.00;;
18893;SDS011;9579;49.488;8.226;2023-04-03T18:59:48;4.20;;;2.40;;
18893;SDS011;9579;49.488;8.226;2023-04-03T19:02:35;2.63;;;2.10;;
18893;SDS011;9579;49.488;8.226;2023-04-03T19:05:23;4.07;;;2.33;;
18893;SDS011;9579;49.488;8.226;2023-04-03T19:08:11;3.10;;;2.10;;
18893;SDS011;9579;49.488;8.226;2023-04-03T19:10:59;3.23;;;2.00;;
18893;SDS011;9579;49.488;8.226;2023-04-03T19:13:46;2.20;;;1.97;;
18893;SDS011;9579;49.488;8.226;2023-04-03T19:16:34;3.00;;;2.33;;
18893;SDS011;9579;49.488;8.226;2023-04-03T19:19:21;3.83;;;3.43;;
18893;SDS011;9579;49.488;8.226;2023-04-03T19:22:08;3.70;;;3.10;;
18893;SDS011;9579;49.488;8.226;2023-04-03T19:24:55;5.17;;;3.57;;
18893;SDS011;9579;49.488;8.226;2023-04-03T19:27:42;4.90;;;4.40;;
18893;SDS011;9579;49.488;8.226;2023-04-03T19:30:29;6.63;;;5.87;;
18893;SDS011;9579;49.488;8.226;2023-04-03T19:33:18;5.90;;;3.20;;
18893;SDS011;9579;49.488;8.226;2023-04-03T19:36:06;3.40;;;3.10;;
18893;SDS011;9579;49.488;8.226;2023-04-03T19:38:54;6.03;;;5.43;;
18893;SDS011;9579;49.488;8.226;2023-04-03T19:41:41;4.47;;;3.10;;
18893;SDS011;9579;49.488;8.226;2023-04-03T19:44:29;3.10;;;2.50;;
18893;SDS011;9579;49.488;8.226;2023-04-03T19:47:17;3.10;;;2.70;;
18893;SDS011;9579;49.488;8.226;2023-04-03T19:50:08;5.80;;;3.10;;
18893;SDS011;9579;49.488;8.226;2023-04-03T19:52:56;3.20;;;2.33;;
18893;SDS011;9579;49.488;8.226;2023-04-03T19:55:44;3.93;;;2.27;;
18893;SDS011;9579;49.488;8.226;2023-04-03T20:01:07;3.73;;;2.10;;
18893;SDS011;9579;49.488;8.226;2023-04-03T20:04:07;2.83;;;2.20;;
18893;SDS011;9579;49.488;8.226;2023-04-03T20:06:59;3.50;;;2.33;;